sensor_id;sensor_type;location;lat;lon;timestamp;P1;durP1;ratioP1;P2;durP2;ratioP2
59374;SDS011;45172;55.006;73.460;2022-10-30T15:10:38;32.65;;;10.73;;
59374;SDS011;45172;55.006;73.460;2022-10-30T15:13:20;19.45;;;8.88;;
59374;SDS011;45172;55.006;73.460;2022-10-30T15:15:59;25.40;;;9.80;;
59374;SDS011;45172;55.006;73.460;2022-10-30T15:18:26;21.48;;;10.13;;
59374;SDS011;45172;55.006;73.460;2022-10-30T15:20:52;28.20;;;10.10;;
59374;SDS011;45172;55.006;73.460;2022-10-30T15:23:28;14.95;;;8.13;;
59374;SDS011;45172;55.006;73.460;2022-10-30T15:25:57;19.05;;;8.07;;
59374;SDS011;45172;55.006;73.460;2022-10-30T15:28:29;13.52;;;7.22;;
59374;SDS011;45172;55.006;73.460;2022-10-30T15:33:45;15.25;;;6.50;;
59374;SDS011;45172;55.006;73.460;2022-10-30T15:36:21;14.63;;;7.25;;
59374;SDS011;45172;55.006;73.460;2022-10-30T15:39:03;16.45;;;7.25;;
59374;SDS011;45172;55.006;73.460;2022-10-30T15:41:38;13.90;;;8.00;;
59374;SDS011;45172;55.006;73.460;2022-10-30T15:44:06;15.38;;;6.82;;
59374;SDS011;45172;55.006;73.460;2022-10-30T15:46:31;15.00;;;7.13;;
59374;SDS011;45172;55.006;73.460;2022-10-30T15:48:57;13.02;;;7.20;;
59374;SDS011;45172;55.006;73.460;2022-10-30T15:51:23;13.88;;;6.65;;
59374;SDS011;45172;55.006;73.460;2022-10-30T15:53:53;17.90;;;7.72;;
59374;SDS011;45172;55.006;73.460;2022-10-30T15:58:49;18.63;;;7.72;;
59374;SDS011;45172;55.006;73.460;2022-10-30T16:01:34;17.00;;;10.27;;
59374;SDS011;45172;55.006;73.460;2022-10-30T16:04:03;19.75;;;9.02;;
59374;SDS011;45172;55.006;73.460;2022-10-30T16:06:29;68.32;;;24.00;;
59374;SDS011;45172;55.006;73.460;2022-10-30T16:09:02;47.90;;;24.60;;
59374;SDS011;45172;55.006;73.460;2022-10-30T16:11:37;52.83;;;24.88;;
59374;SDS011;45172;55.006;73.460;2022-10-30T16:14:06;53.88;;;26.77;;
59374;SDS011;45172;55.006;73.460;2022-10-30T16:16:32;30.88;;;17.83;;
59374;SDS011;45172;55.006;73.460;2022-10-30T16:18:59;26.73;;;14.88;;
59374;SDS011;45172;55.006;73.460;2022-10-30T16:21:27;23.25;;;11.75;;
59374;SDS011;45172;55.006;73.460;2022-10-30T16:24:06;21.25;;;10.90;;
59374;SDS011;45172;55.006;73.460;2022-10-30T16:26:40;20.52;;;10.65;;
59374;SDS011;45172;55.006;73.460;2022-10-30T16:31:44;45.65;;;19.77;;
59374;SDS011;45172;55.006;73.460;2022-10-30T16:34:22;61.70;;;24.90;;
59374;SDS011;45172;55.006;73.460;2022-10-30T16:36:53;49.50;;;19.35;;
59374;SDS011;45172;55.006;73.460;2022-10-30T16:39:24;45.53;;;20.48;;
59374;SDS011;45172;55.006;73.460;2022-10-30T16:42:00;32.47;;;15.27;;
59374;SDS011;45172;55.006;73.460;2022-10-30T16:44:28;32.45;;;14.68;;
59374;SDS011;45172;55.006;73.460;2022-10-30T16:49:21;34.15;;;12.50;;
59374;SDS011;45172;55.006;73.460;2022-10-30T16:51:57;24.15;;;12.93;;
59374;SDS011;45172;55.006;73.460;2022-10-30T16:54:31;22.73;;;9.95;;
59374;SDS011;45172;55.006;73.460;2022-10-30T16:57:02;21.05;;;9.75;;
59374;SDS011;45172;55.006;73.460;2022-10-30T16:59:43;23.80;;;10.80;;
59374;SDS011;45172;55.006;73.460;2022-10-30T17:02:19;31.48;;;13.05;;
59374;SDS011;45172;55.006;73.460;2022-10-30T17:04:59;26.38;;;12.25;;
59374;SDS011;45172;55.006;73.460;2022-10-30T17:07:27;26.25;;;12.90;;
59374;SDS011;45172;55.006;73.460;2022-10-30T17:09:53;29.17;;;11.20;;
59374;SDS011;45172;55.006;73.460;2022-10-30T17:12:22;35.33;;;13.70;;
59374;SDS011;45172;55.006;73.460;2022-10-30T17:14:50;25.20;;;11.75;;
59374;SDS011;45172;55.006;73.460;2022-10-30T17:17:20;28.58;;;11.40;;
59374;SDS011;45172;55.006;73.460;2022-10-30T17:19:47;31.42;;;13.38;;
59374;SDS011;45172;55.006;73.460;2022-10-30T17:22:15;34.35;;;13.88;;
59374;SDS011;45172;55.006;73.460;2022-10-30T17:24:42;37.55;;;14.10;;
59374;SDS011;45172;55.006;73.460;2022-10-30T17:30:03;29.20;;;11.43;;
59374;SDS011;45172;55.006;73.460;2022-10-30T17:32:51;26.60;;;12.43;;
59374;SDS011;45172;55.006;73.460;2022-10-30T17:35:17;28.70;;;11.20;;
59374;SDS011;45172;55.006;73.460;2022-10-30T17:37:43;27.02;;;12.77;;
59374;SDS011;45172;55.006;73.460;2022-10-30T17:40:10;26.30;;;10.65;;
59374;SDS011;45172;55.006;73.460;2022-10-30T17:42:36;27.50;;;11.35;;
59374;SDS011;45172;55.006;73.460;2022-10-30T17:45:02;29.10;;;12.40;;
59374;SDS011;45172;55.006;73.460;2022-10-30T17:47:31;18.90;;;9.15;;
59374;SDS011;45172;55.006;73.460;2022-10-30T17:49:57;25.75;;;11.48;;
59374;SDS011;45172;55.006;73.460;2022-10-30T17:52:34;25.85;;;10.85;;
59374;SDS011;45172;55.006;73.460;2022-10-30T17:55:00;19.98;;;9.63;;
59374;SDS011;45172;55.006;73.460;2022-10-30T17:57:26;18.30;;;8.68;;
59374;SDS011;45172;55.006;73.460;2022-10-30T18:00:03;22.42;;;9.02;;
59374;SDS011;45172;55.006;73.460;2022-10-30T18:02:30;18.95;;;8.57;;
59374;SDS011;45172;55.006;73.460;2022-10-30T18:04:56;15.90;;;8.02;;
59374;SDS011;45172;55.006;73.460;2022-10-30T18:07:22;14.20;;;7.82;;
59374;SDS011;45172;55.006;73.460;2022-10-30T18:09:48;16.10;;;8.30;;
59374;SDS011;45172;55.006;73.460;2022-10-30T18:12:14;15.77;;;7.13;;
59374;SDS011;45172;55.006;73.460;2022-10-30T18:14:51;15.57;;;7.28;;
59374;SDS011;45172;55.006;73.460;2022-10-30T18:17:21;15.15;;;7.00;;
59374;SDS011;45172;55.006;73.460;2022-10-30T18:19:47;21.33;;;7.85;;
59374;SDS011;45172;55.006;73.460;2022-10-30T18:22:13;12.98;;;6.60;;
59374;SDS011;45172;55.006;73.460;2022-10-30T18:24:39;14.65;;;7.20;;
59374;SDS011;45172;55.006;73.460;2022-10-30T18:27:09;22.65;;;9.85;;
59374;SDS011;45172;55.006;73.460;2022-10-30T18:29:37;20.65;;;9.60;;
59374;SDS011;45172;55.006;73.460;2022-10-30T18:32:03;21.08;;;10.20;;
59374;SDS011;45172;55.006;73.460;2022-10-30T18:34:29;19.90;;;8.90;;
59374;SDS011;45172;55.006;73.460;2022-10-30T18:36:55;21.15;;;9.85;;
59374;SDS011;45172;55.006;73.460;2022-10-30T18:39:21;20.02;;;9.68;;
59374;SDS011;45172;55.006;73.460;2022-10-30T18:41:47;17.27;;;7.90;;
59374;SDS011;45172;55.006;73.460;2022-10-30T18:44:14;18.58;;;9.20;;
59374;SDS011;45172;55.006;73.460;2022-10-30T18:46:40;15.73;;;8.18;;
59374;SDS011;45172;55.006;73.460;2022-10-30T18:49:06;24.45;;;9.98;;
59374;SDS011;45172;55.006;73.460;2022-10-30T18:51:32;27.98;;;10.85;;
59374;SDS011;45172;55.006;73.460;2022-10-30T18:53:58;19.73;;;9.32;;
59374;SDS011;45172;55.006;73.460;2022-10-30T18:56:28;18.60;;;7.45;;
59374;SDS011;45172;55.006;73.460;2022-10-30T18:58:54;19.77;;;9.55;;
59374;SDS011;45172;55.006;73.460;2022-10-30T19:01:20;30.45;;;10.93;;
59374;SDS011;45172;55.006;73.460;2022-10-30T19:03:46;18.30;;;7.68;;
59374;SDS011;45172;55.006;73.460;2022-10-30T19:06:14;17.67;;;7.63;;
59374;SDS011;45172;55.006;73.460;2022-10-30T19:08:40;16.92;;;7.57;;
59374;SDS011;45172;55.006;73.460;2022-10-30T19:11:08;13.20;;;6.35;;
59374;SDS011;45172;55.006;73.460;2022-10-30T19:13:35;12.50;;;6.28;;
59374;SDS011;45172;55.006;73.460;2022-10-30T19:16:01;14.45;;;7.45;;
59374;SDS011;45172;55.006;73.460;2022-10-30T19:18:27;18.27;;;8.32;;
59374;SDS011;45172;55.006;73.460;2022-10-30T19:20:53;22.77;;;8.38;;
59374;SDS011;45172;55.006;73.460;2022-10-30T19:23:19;19.75;;;8.30;;
59374;SDS011;45172;55.006;73.460;2022-10-30T19:25:45;16.65;;;8.18;;
59374;SDS011;45172;55.006;73.460;2022-10-30T19:28:18;17.38;;;8.10;;
59374;SDS011;45172;55.006;73.460;2022-10-30T19:30:46;20.75;;;7.90;;
59374;SDS011;45172;55.006;73.460;2022-10-30T19:33:21;15.57;;;8.00;;
59374;SDS011;45172;55.006;73.460;2022-10-30T19:36:02;16.80;;;7.25;;
59374;SDS011;45172;55.006;73.460;2022-10-30T19:38:31;15.77;;;7.90;;
59374;SDS011;45172;55.006;73.460;2022-10-30T19:41:07;18.15;;;8.52;;
59374;SDS011;45172;55.006;73.460;2022-10-30T19:43:33;16.10;;;8.00;;
59374;SDS011;45172;55.006;73.460;2022-10-30T19:45:59;15.57;;;7.28;;
59374;SDS011;45172;55.006;73.460;2022-10-30T19:48:25;16.02;;;6.30;;
59374;SDS011;45172;55.006;73.460;2022-10-30T19:50:59;18.30;;;7.72;;
59374;SDS011;45172;55.006;73.460;2022-10-30T19:53:26;12.23;;;7.20;;
59374;SDS011;45172;55.006;73.460;2022-10-30T19:55:52;15.93;;;7.47;;
59374;SDS011;45172;55.006;73.460;2022-10-30T19:58:23;19.88;;;7.93;;
59374;SDS011;45172;55.006;73.460;2022-10-30T20:00:50;16.92;;;7.75;;
59374;SDS011;45172;55.006;73.460;2022-10-30T20:03:18;17.20;;;7.68;;
59374;SDS011;45172;55.006;73.460;2022-10-30T20:05:45;23.58;;;8.27;;
59374;SDS011;45172;55.006;73.460;2022-10-30T20:08:24;17.77;;;8.13;;
59374;SDS011;45172;55.006;73.460;2022-10-30T20:10:51;24.92;;;7.70;;
59374;SDS011;45172;55.006;73.460;2022-10-30T20:13:24;17.90;;;7.55;;
59374;SDS011;45172;55.006;73.460;2022-10-30T20:15:51;20.38;;;7.70;;
59374;SDS011;45172;55.006;73.460;2022-10-30T20:18:22;17.15;;;7.55;;
59374;SDS011;45172;55.006;73.460;2022-10-30T20:20:55;23.73;;;8.70;;
59374;SDS011;45172;55.006;73.460;2022-10-30T20:23:25;25.83;;;8.38;;
59374;SDS011;45172;55.006;73.460;2022-10-30T20:26:04;27.33;;;8.93;;
59374;SDS011;45172;55.006;73.460;2022-10-30T20:28:37;28.83;;;10.05;;
59374;SDS011;45172;55.006;73.460;2022-10-30T20:31:06;30.83;;;10.65;;
59374;SDS011;45172;55.006;73.460;2022-10-30T20:33:33;34.83;;;11.02;;
59374;SDS011;45172;55.006;73.460;2022-10-30T20:35:59;36.72;;;11.63;;
59374;SDS011;45172;55.006;73.460;2022-10-30T20:38:26;30.08;;;10.55;;
59374;SDS011;45172;55.006;73.460;2022-10-30T20:40:53;37.08;;;10.77;;
59374;SDS011;45172;55.006;73.460;2022-10-30T20:43:20;66.38;;;34.00;;
59374;SDS011;45172;55.006;73.460;2022-10-30T20:45:59;51.63;;;14.15;;
59374;SDS011;45172;55.006;73.460;2022-10-30T20:48:26;41.40;;;15.20;;
59374;SDS011;45172;55.006;73.460;2022-10-30T20:50:54;88.57;;;22.73;;
59374;SDS011;45172;55.006;73.460;2022-10-30T20:53:26;73.65;;;19.77;;
59374;SDS011;45172;55.006;73.460;2022-10-30T20:55:52;83.05;;;22.33;;
59374;SDS011;45172;55.006;73.460;2022-10-30T20:58:18;84.00;;;20.42;;
59374;SDS011;45172;55.006;73.460;2022-10-30T21:00:49;104.38;;;22.80;;
59374;SDS011;45172;55.006;73.460;2022-10-30T21:03:19;107.40;;;25.20;;
59374;SDS011;45172;55.006;73.460;2022-10-30T21:05:44;76.28;;;19.63;;
59374;SDS011;45172;55.006;73.460;2022-10-30T21:08:11;66.82;;;18.63;;
59374;SDS011;45172;55.006;73.460;2022-10-30T21:10:43;64.07;;;17.23;;
59374;SDS011;45172;55.006;73.460;2022-10-30T21:13:09;60.67;;;15.18;;
59374;SDS011;45172;55.006;73.460;2022-10-30T21:15:40;61.20;;;15.13;;
59374;SDS011;45172;55.006;73.460;2022-10-30T21:18:12;38.63;;;13.30;;
59374;SDS011;45172;55.006;73.460;2022-10-30T21:20:38;24.95;;;7.97;;
59374;SDS011;45172;55.006;73.460;2022-10-30T21:23:05;23.92;;;8.98;;
59374;SDS011;45172;55.006;73.460;2022-10-30T21:25:31;20.67;;;8.35;;
59374;SDS011;45172;55.006;73.460;2022-10-30T21:28:03;13.23;;;6.15;;
59374;SDS011;45172;55.006;73.460;2022-10-30T21:30:29;16.23;;;6.60;;
59374;SDS011;45172;55.006;73.460;2022-10-30T21:33:05;13.52;;;5.93;;
59374;SDS011;45172;55.006;73.460;2022-10-30T21:35:37;19.42;;;6.75;;
59374;SDS011;45172;55.006;73.460;2022-10-30T21:38:03;15.57;;;6.97;;
59374;SDS011;45172;55.006;73.460;2022-10-30T21:40:28;16.55;;;7.30;;
59374;SDS011;45172;55.006;73.460;2022-10-30T21:43:00;15.15;;;7.60;;
59374;SDS011;45172;55.006;73.460;2022-10-30T21:45:31;16.98;;;6.40;;
59374;SDS011;45172;55.006;73.460;2022-10-30T21:48:03;13.80;;;6.70;;
59374;SDS011;45172;55.006;73.460;2022-10-30T21:50:29;14.40;;;6.13;;
59374;SDS011;45172;55.006;73.460;2022-10-30T21:52:56;9.07;;;5.50;;
59374;SDS011;45172;55.006;73.460;2022-10-30T21:55:31;12.90;;;5.95;;
59374;SDS011;45172;55.006;73.460;2022-10-30T21:58:08;11.52;;;5.90;;
59374;SDS011;45172;55.006;73.460;2022-10-30T22:00:34;10.43;;;5.60;;
59374;SDS011;45172;55.006;73.460;2022-10-30T22:02:59;14.85;;;6.18;;
59374;SDS011;45172;55.006;73.460;2022-10-30T22:05:25;10.20;;;6.10;;
59374;SDS011;45172;55.006;73.460;2022-10-30T22:07:51;12.18;;;6.75;;
59374;SDS011;45172;55.006;73.460;2022-10-30T22:10:21;16.73;;;7.40;;
59374;SDS011;45172;55.006;73.460;2022-10-30T22:12:47;15.07;;;7.00;;
59374;SDS011;45172;55.006;73.460;2022-10-30T22:15:23;14.10;;;7.25;;
59374;SDS011;45172;55.006;73.460;2022-10-30T22:17:53;18.38;;;6.60;;
59374;SDS011;45172;55.006;73.460;2022-10-30T22:20:25;13.15;;;6.43;;
59374;SDS011;45172;55.006;73.460;2022-10-30T22:22:53;15.27;;;7.53;;
59374;SDS011;45172;55.006;73.460;2022-10-30T22:25:19;23.25;;;8.20;;
59374;SDS011;45172;55.006;73.460;2022-10-30T22:27:45;16.58;;;7.20;;
59374;SDS011;45172;55.006;73.460;2022-10-30T22:30:12;14.93;;;7.72;;
59374;SDS011;45172;55.006;73.460;2022-10-30T22:32:39;17.63;;;6.85;;
59374;SDS011;45172;55.006;73.460;2022-10-30T22:35:05;22.48;;;7.68;;
59374;SDS011;45172;55.006;73.460;2022-10-30T22:37:31;16.38;;;7.13;;
59374;SDS011;45172;55.006;73.460;2022-10-30T22:39:57;17.38;;;6.82;;
59374;SDS011;45172;55.006;73.460;2022-10-30T22:42:23;15.65;;;6.40;;
59374;SDS011;45172;55.006;73.460;2022-10-30T22:44:54;17.40;;;6.85;;
59374;SDS011;45172;55.006;73.460;2022-10-30T22:47:26;11.90;;;6.10;;
59374;SDS011;45172;55.006;73.460;2022-10-30T22:50:01;12.25;;;5.63;;
59374;SDS011;45172;55.006;73.460;2022-10-30T22:52:27;12.32;;;5.63;;
59374;SDS011;45172;55.006;73.460;2022-10-30T22:54:57;13.85;;;6.40;;
59374;SDS011;45172;55.006;73.460;2022-10-30T22:57:23;13.70;;;5.63;;
59374;SDS011;45172;55.006;73.460;2022-10-30T22:59:49;17.55;;;5.25;;
59374;SDS011;45172;55.006;73.460;2022-10-30T23:02:15;14.15;;;5.78;;
59374;SDS011;45172;55.006;73.460;2022-10-30T23:04:51;9.52;;;5.15;;
59374;SDS011;45172;55.006;73.460;2022-10-30T23:07:22;12.77;;;4.95;;
59374;SDS011;45172;55.006;73.460;2022-10-30T23:09:48;11.70;;;5.40;;
59374;SDS011;45172;55.006;73.460;2022-10-30T23:12:14;17.95;;;5.20;;
59374;SDS011;45172;55.006;73.460;2022-10-30T23:14:40;12.35;;;5.55;;
59374;SDS011;45172;55.006;73.460;2022-10-30T23:17:07;16.40;;;6.53;;
59374;SDS011;45172;55.006;73.460;2022-10-30T23:19:33;9.23;;;5.55;;
59374;SDS011;45172;55.006;73.460;2022-10-30T23:21:59;9.27;;;5.32;;
59374;SDS011;45172;55.006;73.460;2022-10-30T23:24:32;13.70;;;6.43;;
59374;SDS011;45172;55.006;73.460;2022-10-30T23:26:58;13.55;;;5.85;;
59374;SDS011;45172;55.006;73.460;2022-10-30T23:29:24;17.75;;;5.78;;
59374;SDS011;45172;55.006;73.460;2022-10-30T23:31:50;11.13;;;6.03;;
59374;SDS011;45172;55.006;73.460;2022-10-30T23:34:16;9.35;;;5.72;;
59374;SDS011;45172;55.006;73.460;2022-10-30T23:36:42;9.77;;;5.57;;
59374;SDS011;45172;55.006;73.460;2022-10-30T23:39:11;11.68;;;5.65;;
59374;SDS011;45172;55.006;73.460;2022-10-30T23:44:18;13.70;;;5.03;;
59374;SDS011;45172;55.006;73.460;2022-10-30T23:46:45;17.02;;;6.03;;
59374;SDS011;45172;55.006;73.460;2022-10-30T23:49:11;10.98;;;5.60;;
59374;SDS011;45172;55.006;73.460;2022-10-30T23:51:40;10.70;;;5.13;;
59374;SDS011;45172;55.006;73.460;2022-10-30T23:54:06;16.35;;;6.28;;
59374;SDS011;45172;55.006;73.460;2022-10-30T23:56:32;16.38;;;7.43;;
59374;SDS011;45172;55.006;73.460;2022-10-30T23:58:58;20.50;;;7.30;;
